sensor_id;sensor_type;location;lat;lon;timestamp;P1;durP1;ratioP1;P2;durP2;ratioP2
35891;SDS011;21993;42.672;23.296;2023-03-14T00:00:56;24.23;;;13.50;;
35891;SDS011;21993;42.672;23.296;2023-03-14T00:03:23;23.80;;;15.93;;
35891;SDS011;21993;42.672;23.296;2023-03-14T00:05:48;29.53;;;14.93;;
35891;SDS011;21993;42.672;23.296;2023-03-14T00:08:13;28.17;;;15.73;;
35891;SDS011;21993;42.672;23.296;2023-03-14T00:10:39;26.77;;;15.60;;
35891;SDS011;21993;42.672;23.296;2023-03-14T00:13:04;27.03;;;15.47;;
35891;SDS011;21993;42.672;23.296;2023-03-14T00:15:31;28.17;;;15.70;;
35891;SDS011;21993;42.672;23.296;2023-03-14T00:17:58;32.37;;;14.80;;
35891;SDS011;21993;42.672;23.296;2023-03-14T00:20:23;25.90;;;14.23;;
35891;SDS011;21993;42.672;23.296;2023-03-14T00:22:49;28.77;;;14.80;;
35891;SDS011;21993;42.672;23.296;2023-03-14T00:25:14;25.40;;;13.67;;
35891;SDS011;21993;42.672;23.296;2023-03-14T00:27:39;29.77;;;14.30;;
35891;SDS011;21993;42.672;23.296;2023-03-14T00:30:05;27.33;;;14.97;;
35891;SDS011;21993;42.672;23.296;2023-03-14T00:32:33;26.17;;;14.33;;
35891;SDS011;21993;42.672;23.296;2023-03-14T00:34:58;30.60;;;15.47;;
35891;SDS011;21993;42.672;23.296;2023-03-14T00:37:24;26.87;;;14.77;;
35891;SDS011;21993;42.672;23.296;2023-03-14T00:39:51;28.50;;;13.80;;
35891;SDS011;21993;42.672;23.296;2023-03-14T00:42:16;27.77;;;14.10;;
35891;SDS011;21993;42.672;23.296;2023-03-14T00:44:42;24.70;;;13.53;;
35891;SDS011;21993;42.672;23.296;2023-03-14T00:47:07;26.53;;;14.47;;
35891;SDS011;21993;42.672;23.296;2023-03-14T00:49:33;24.57;;;13.30;;
35891;SDS011;21993;42.672;23.296;2023-03-14T00:51:58;25.70;;;13.27;;
35891;SDS011;21993;42.672;23.296;2023-03-14T00:54:23;26.33;;;14.20;;
35891;SDS011;21993;42.672;23.296;2023-03-14T00:56:49;32.23;;;14.30;;
35891;SDS011;21993;42.672;23.296;2023-03-14T00:59:15;26.70;;;13.53;;
35891;SDS011;21993;42.672;23.296;2023-03-14T01:01:41;27.17;;;13.63;;
35891;SDS011;21993;42.672;23.296;2023-03-14T01:04:07;20.97;;;12.77;;
35891;SDS011;21993;42.672;23.296;2023-03-14T01:06:32;25.23;;;13.90;;
35891;SDS011;21993;42.672;23.296;2023-03-14T01:08:58;23.50;;;12.63;;
35891;SDS011;21993;42.672;23.296;2023-03-14T01:11:25;22.57;;;13.03;;
35891;SDS011;21993;42.672;23.296;2023-03-14T01:13:53;20.70;;;12.53;;
35891;SDS011;21993;42.672;23.296;2023-03-14T01:16:19;24.57;;;12.67;;
35891;SDS011;21993;42.672;23.296;2023-03-14T01:18:47;24.50;;;13.83;;
35891;SDS011;21993;42.672;23.296;2023-03-14T01:21:14;21.93;;;12.07;;
35891;SDS011;21993;42.672;23.296;2023-03-14T01:23:42;24.53;;;12.97;;
35891;SDS011;21993;42.672;23.296;2023-03-14T01:26:09;20.73;;;12.90;;
35891;SDS011;21993;42.672;23.296;2023-03-14T01:28:36;22.07;;;12.60;;
35891;SDS011;21993;42.672;23.296;2023-03-14T01:31:02;25.33;;;13.37;;
35891;SDS011;21993;42.672;23.296;2023-03-14T01:33:29;21.60;;;13.43;;
35891;SDS011;21993;42.672;23.296;2023-03-14T01:35:54;24.57;;;12.67;;
35891;SDS011;21993;42.672;23.296;2023-03-14T01:38:19;28.87;;;13.20;;
35891;SDS011;21993;42.672;23.296;2023-03-14T01:40:45;22.47;;;13.50;;
35891;SDS011;21993;42.672;23.296;2023-03-14T01:43:14;20.37;;;12.83;;
35891;SDS011;21993;42.672;23.296;2023-03-14T01:48:33;21.23;;;12.37;;
35891;SDS011;21993;42.672;23.296;2023-03-14T01:51:02;22.40;;;12.70;;
35891;SDS011;21993;42.672;23.296;2023-03-14T01:53:35;23.20;;;13.23;;
35891;SDS011;21993;42.672;23.296;2023-03-14T01:56:02;21.23;;;12.30;;
35891;SDS011;21993;42.672;23.296;2023-03-14T01:58:28;22.23;;;12.20;;
35891;SDS011;21993;42.672;23.296;2023-03-14T02:00:57;19.30;;;11.90;;
35891;SDS011;21993;42.672;23.296;2023-03-14T02:03:23;18.70;;;12.50;;
35891;SDS011;21993;42.672;23.296;2023-03-14T02:05:50;20.33;;;10.67;;
35891;SDS011;21993;42.672;23.296;2023-03-14T02:08:20;19.40;;;11.17;;
35891;SDS011;21993;42.672;23.296;2023-03-14T02:10:48;20.63;;;10.83;;
35891;SDS011;21993;42.672;23.296;2023-03-14T02:13:15;15.00;;;10.73;;
35891;SDS011;21993;42.672;23.296;2023-03-14T02:15:42;21.30;;;11.17;;
35891;SDS011;21993;42.672;23.296;2023-03-14T02:18:07;20.70;;;11.10;;
35891;SDS011;21993;42.672;23.296;2023-03-14T02:20:57;19.73;;;11.27;;
35891;SDS011;21993;42.672;23.296;2023-03-14T02:26:39;22.87;;;12.10;;
35891;SDS011;21993;42.672;23.296;2023-03-14T02:29:08;21.23;;;11.90;;
35891;SDS011;21993;42.672;23.296;2023-03-14T02:31:34;19.77;;;12.40;;
35891;SDS011;21993;42.672;23.296;2023-03-14T02:34:00;26.43;;;12.90;;
35891;SDS011;21993;42.672;23.296;2023-03-14T02:36:27;26.23;;;11.97;;
35891;SDS011;21993;42.672;23.296;2023-03-14T02:39:08;18.53;;;10.77;;
35891;SDS011;21993;42.672;23.296;2023-03-14T02:41:39;22.83;;;11.73;;
35891;SDS011;21993;42.672;23.296;2023-03-14T02:44:04;20.13;;;11.23;;
35891;SDS011;21993;42.672;23.296;2023-03-14T02:46:30;17.27;;;9.43;;
35891;SDS011;21993;42.672;23.296;2023-03-14T02:48:57;16.43;;;10.67;;
35891;SDS011;21993;42.672;23.296;2023-03-14T02:51:25;16.63;;;9.90;;
35891;SDS011;21993;42.672;23.296;2023-03-14T02:53:52;17.07;;;10.10;;
35891;SDS011;21993;42.672;23.296;2023-03-14T02:56:18;16.20;;;10.13;;
35891;SDS011;21993;42.672;23.296;2023-03-14T02:58:43;17.33;;;11.20;;
35891;SDS011;21993;42.672;23.296;2023-03-14T03:01:08;18.13;;;10.90;;
35891;SDS011;21993;42.672;23.296;2023-03-14T03:03:34;18.00;;;10.23;;
35891;SDS011;21993;42.672;23.296;2023-03-14T03:06:00;17.80;;;11.37;;
35891;SDS011;21993;42.672;23.296;2023-03-14T03:08:26;18.40;;;10.53;;
35891;SDS011;21993;42.672;23.296;2023-03-14T03:10:52;24.90;;;11.03;;
35891;SDS011;21993;42.672;23.296;2023-03-14T03:13:18;16.17;;;10.40;;
35891;SDS011;21993;42.672;23.296;2023-03-14T03:15:44;18.37;;;11.27;;
35891;SDS011;21993;42.672;23.296;2023-03-14T03:18:09;13.83;;;10.80;;
35891;SDS011;21993;42.672;23.296;2023-03-14T03:20:35;18.53;;;11.43;;
35891;SDS011;21993;42.672;23.296;2023-03-14T03:23:01;15.93;;;10.17;;
35891;SDS011;21993;42.672;23.296;2023-03-14T03:25:26;16.27;;;10.63;;
35891;SDS011;21993;42.672;23.296;2023-03-14T03:27:52;18.20;;;11.43;;
35891;SDS011;21993;42.672;23.296;2023-03-14T03:30:18;17.03;;;11.67;;
35891;SDS011;21993;42.672;23.296;2023-03-14T03:32:44;23.20;;;11.90;;
35891;SDS011;21993;42.672;23.296;2023-03-14T03:35:09;16.57;;;10.40;;
35891;SDS011;21993;42.672;23.296;2023-03-14T03:37:35;20.93;;;12.03;;
35891;SDS011;21993;42.672;23.296;2023-03-14T03:40:01;17.87;;;11.67;;
35891;SDS011;21993;42.672;23.296;2023-03-14T03:42:30;18.03;;;11.57;;
35891;SDS011;21993;42.672;23.296;2023-03-14T03:44:56;17.87;;;11.37;;
35891;SDS011;21993;42.672;23.296;2023-03-14T03:47:21;23.00;;;12.40;;
35891;SDS011;21993;42.672;23.296;2023-03-14T03:49:47;17.80;;;12.27;;
35891;SDS011;21993;42.672;23.296;2023-03-14T03:52:12;20.50;;;11.87;;
35891;SDS011;21993;42.672;23.296;2023-03-14T03:54:37;19.47;;;12.37;;
35891;SDS011;21993;42.672;23.296;2023-03-14T03:57:03;21.77;;;12.70;;
35891;SDS011;21993;42.672;23.296;2023-03-14T03:59:28;20.43;;;12.83;;
35891;SDS011;21993;42.672;23.296;2023-03-14T04:01:53;19.33;;;12.03;;
35891;SDS011;21993;42.672;23.296;2023-03-14T04:04:19;24.73;;;12.43;;
35891;SDS011;21993;42.672;23.296;2023-03-14T04:06:44;19.77;;;11.97;;
35891;SDS011;21993;42.672;23.296;2023-03-14T04:09:10;20.50;;;11.87;;
35891;SDS011;21993;42.672;23.296;2023-03-14T04:11:36;21.83;;;13.30;;
35891;SDS011;21993;42.672;23.296;2023-03-14T04:14:02;21.20;;;11.67;;
35891;SDS011;21993;42.672;23.296;2023-03-14T04:16:28;19.63;;;11.33;;
35891;SDS011;21993;42.672;23.296;2023-03-14T04:18:56;18.53;;;11.57;;
35891;SDS011;21993;42.672;23.296;2023-03-14T04:21:22;18.90;;;11.30;;
35891;SDS011;21993;42.672;23.296;2023-03-14T04:23:47;20.87;;;11.30;;
35891;SDS011;21993;42.672;23.296;2023-03-14T04:26:12;22.33;;;11.73;;
35891;SDS011;21993;42.672;23.296;2023-03-14T04:28:38;22.63;;;12.30;;
35891;SDS011;21993;42.672;23.296;2023-03-14T04:31:07;17.83;;;10.60;;
35891;SDS011;21993;42.672;23.296;2023-03-14T04:33:37;21.20;;;11.10;;
35891;SDS011;21993;42.672;23.296;2023-03-14T04:36:03;21.47;;;12.07;;
35891;SDS011;21993;42.672;23.296;2023-03-14T04:38:30;18.93;;;10.83;;
35891;SDS011;21993;42.672;23.296;2023-03-14T04:40:56;20.83;;;10.63;;
35891;SDS011;21993;42.672;23.296;2023-03-14T04:43:22;19.60;;;11.60;;
35891;SDS011;21993;42.672;23.296;2023-03-14T04:45:48;23.23;;;11.90;;
35891;SDS011;21993;42.672;23.296;2023-03-14T04:48:13;19.53;;;11.50;;
35891;SDS011;21993;42.672;23.296;2023-03-14T04:50:39;19.50;;;11.07;;
35891;SDS011;21993;42.672;23.296;2023-03-14T04:53:05;24.43;;;12.40;;
35891;SDS011;21993;42.672;23.296;2023-03-14T04:55:31;17.83;;;12.70;;
35891;SDS011;21993;42.672;23.296;2023-03-14T04:57:57;40.17;;;15.87;;
35891;SDS011;21993;42.672;23.296;2023-03-14T05:00:23;27.57;;;15.03;;
35891;SDS011;21993;42.672;23.296;2023-03-14T05:02:48;31.30;;;14.90;;
35891;SDS011;21993;42.672;23.296;2023-03-14T05:05:14;28.00;;;13.07;;
35891;SDS011;21993;42.672;23.296;2023-03-14T05:07:39;22.23;;;12.37;;
35891;SDS011;21993;42.672;23.296;2023-03-14T05:10:04;25.63;;;15.03;;
35891;SDS011;21993;42.672;23.296;2023-03-14T05:12:30;25.63;;;13.43;;
35891;SDS011;21993;42.672;23.296;2023-03-14T05:14:55;27.37;;;14.50;;
35891;SDS011;21993;42.672;23.296;2023-03-14T05:17:21;25.83;;;12.67;;
35891;SDS011;21993;42.672;23.296;2023-03-14T05:19:46;22.20;;;12.43;;
35891;SDS011;21993;42.672;23.296;2023-03-14T05:22:12;31.27;;;13.23;;
35891;SDS011;21993;42.672;23.296;2023-03-14T05:24:37;31.40;;;14.70;;
35891;SDS011;21993;42.672;23.296;2023-03-14T05:27:03;28.50;;;15.83;;
35891;SDS011;21993;42.672;23.296;2023-03-14T05:29:29;28.83;;;13.13;;
35891;SDS011;21993;42.672;23.296;2023-03-14T05:31:54;29.90;;;14.77;;
35891;SDS011;21993;42.672;23.296;2023-03-14T05:34:20;29.07;;;15.77;;
35891;SDS011;21993;42.672;23.296;2023-03-14T05:36:45;22.17;;;11.73;;
35891;SDS011;21993;42.672;23.296;2023-03-14T05:39:10;24.47;;;12.90;;
35891;SDS011;21993;42.672;23.296;2023-03-14T05:41:36;25.63;;;14.17;;
35891;SDS011;21993;42.672;23.296;2023-03-14T05:44:01;27.10;;;13.13;;
35891;SDS011;21993;42.672;23.296;2023-03-14T05:46:27;35.70;;;14.90;;
35891;SDS011;21993;42.672;23.296;2023-03-14T05:48:52;29.13;;;15.70;;
35891;SDS011;21993;42.672;23.296;2023-03-14T05:51:18;24.50;;;12.63;;
35891;SDS011;21993;42.672;23.296;2023-03-14T05:53:43;26.83;;;12.57;;
35891;SDS011;21993;42.672;23.296;2023-03-14T05:56:08;30.53;;;12.87;;
35891;SDS011;21993;42.672;23.296;2023-03-14T05:58:34;14.87;;;11.77;;
35891;SDS011;21993;42.672;23.296;2023-03-14T06:01:03;24.23;;;12.43;;
35891;SDS011;21993;42.672;23.296;2023-03-14T06:03:30;19.03;;;11.50;;
35891;SDS011;21993;42.672;23.296;2023-03-14T06:05:56;21.77;;;12.07;;
35891;SDS011;21993;42.672;23.296;2023-03-14T06:08:22;21.33;;;12.33;;
35891;SDS011;21993;42.672;23.296;2023-03-14T06:10:47;22.80;;;12.67;;
35891;SDS011;21993;42.672;23.296;2023-03-14T06:13:12;20.70;;;13.23;;
35891;SDS011;21993;42.672;23.296;2023-03-14T06:15:40;20.47;;;12.33;;
35891;SDS011;21993;42.672;23.296;2023-03-14T06:18:05;24.13;;;12.77;;
35891;SDS011;21993;42.672;23.296;2023-03-14T06:20:31;22.07;;;13.07;;
35891;SDS011;21993;42.672;23.296;2023-03-14T06:22:58;17.73;;;12.20;;
35891;SDS011;21993;42.672;23.296;2023-03-14T06:25:23;21.37;;;12.57;;
35891;SDS011;21993;42.672;23.296;2023-03-14T06:27:48;20.67;;;12.97;;
35891;SDS011;21993;42.672;23.296;2023-03-14T06:30:14;24.20;;;12.97;;
35891;SDS011;21993;42.672;23.296;2023-03-14T06:32:39;21.97;;;13.53;;
35891;SDS011;21993;42.672;23.296;2023-03-14T06:35:05;23.93;;;12.27;;
35891;SDS011;21993;42.672;23.296;2023-03-14T06:37:30;20.77;;;12.50;;
35891;SDS011;21993;42.672;23.296;2023-03-14T06:39:56;19.30;;;11.67;;
35891;SDS011;21993;42.672;23.296;2023-03-14T06:42:21;18.10;;;10.37;;
35891;SDS011;21993;42.672;23.296;2023-03-14T06:44:47;18.07;;;11.03;;
35891;SDS011;21993;42.672;23.296;2023-03-14T06:47:13;21.73;;;12.73;;
35891;SDS011;21993;42.672;23.296;2023-03-14T06:49:38;22.73;;;11.50;;
35891;SDS011;21993;42.672;23.296;2023-03-14T06:52:04;18.00;;;11.77;;
35891;SDS011;21993;42.672;23.296;2023-03-14T06:54:29;17.23;;;10.97;;
35891;SDS011;21993;42.672;23.296;2023-03-14T06:56:55;20.37;;;12.20;;
35891;SDS011;21993;42.672;23.296;2023-03-14T06:59:20;18.40;;;12.30;;
35891;SDS011;21993;42.672;23.296;2023-03-14T07:01:46;21.30;;;12.30;;
35891;SDS011;21993;42.672;23.296;2023-03-14T07:04:13;19.20;;;12.23;;
35891;SDS011;21993;42.672;23.296;2023-03-14T07:06:38;20.07;;;12.47;;
35891;SDS011;21993;42.672;23.296;2023-03-14T07:09:04;20.97;;;12.30;;
35891;SDS011;21993;42.672;23.296;2023-03-14T07:11:30;18.53;;;11.63;;
35891;SDS011;21993;42.672;23.296;2023-03-14T07:13:55;18.47;;;11.07;;
35891;SDS011;21993;42.672;23.296;2023-03-14T07:16:21;19.03;;;11.73;;
35891;SDS011;21993;42.672;23.296;2023-03-14T07:18:46;16.90;;;10.43;;
35891;SDS011;21993;42.672;23.296;2023-03-14T07:21:12;19.97;;;10.80;;
35891;SDS011;21993;42.672;23.296;2023-03-14T07:23:37;13.60;;;10.17;;
35891;SDS011;21993;42.672;23.296;2023-03-14T07:26:03;12.83;;;9.10;;
35891;SDS011;21993;42.672;23.296;2023-03-14T07:28:29;13.57;;;10.43;;
35891;SDS011;21993;42.672;23.296;2023-03-14T07:30:55;13.97;;;9.70;;
35891;SDS011;21993;42.672;23.296;2023-03-14T07:33:20;14.83;;;10.20;;
35891;SDS011;21993;42.672;23.296;2023-03-14T07:35:49;15.63;;;9.97;;
35891;SDS011;21993;42.672;23.296;2023-03-14T07:38:15;18.40;;;10.03;;
35891;SDS011;21993;42.672;23.296;2023-03-14T07:40:41;15.60;;;9.47;;
35891;SDS011;21993;42.672;23.296;2023-03-14T07:43:06;13.60;;;9.40;;
35891;SDS011;21993;42.672;23.296;2023-03-14T07:45:32;16.27;;;9.40;;
35891;SDS011;21993;42.672;23.296;2023-03-14T07:47:57;13.80;;;9.53;;
35891;SDS011;21993;42.672;23.296;2023-03-14T07:50:25;14.57;;;9.23;;
35891;SDS011;21993;42.672;23.296;2023-03-14T07:52:51;15.40;;;8.90;;
35891;SDS011;21993;42.672;23.296;2023-03-14T07:55:17;13.97;;;10.33;;
35891;SDS011;21993;42.672;23.296;2023-03-14T07:57:42;15.27;;;10.47;;
35891;SDS011;21993;42.672;23.296;2023-03-14T08:00:08;14.13;;;9.23;;
35891;SDS011;21993;42.672;23.296;2023-03-14T08:02:34;22.90;;;11.13;;
35891;SDS011;21993;42.672;23.296;2023-03-14T08:05:01;17.77;;;11.47;;
35891;SDS011;21993;42.672;23.296;2023-03-14T08:07:27;17.73;;;10.90;;
35891;SDS011;21993;42.672;23.296;2023-03-14T08:09:52;15.63;;;11.17;;
35891;SDS011;21993;42.672;23.296;2023-03-14T08:12:17;20.60;;;12.73;;
35891;SDS011;21993;42.672;23.296;2023-03-14T08:14:43;21.67;;;12.70;;
35891;SDS011;21993;42.672;23.296;2023-03-14T08:17:08;17.20;;;12.43;;
35891;SDS011;21993;42.672;23.296;2023-03-14T08:19:34;17.97;;;11.70;;
35891;SDS011;21993;42.672;23.296;2023-03-14T08:21:59;20.27;;;12.63;;
35891;SDS011;21993;42.672;23.296;2023-03-14T08:24:25;17.80;;;11.27;;
35891;SDS011;21993;42.672;23.296;2023-03-14T08:26:50;17.70;;;12.27;;
35891;SDS011;21993;42.672;23.296;2023-03-14T08:29:15;20.27;;;12.43;;
35891;SDS011;21993;42.672;23.296;2023-03-14T08:31:41;24.23;;;12.67;;
35891;SDS011;21993;42.672;23.296;2023-03-14T08:34:06;29.87;;;14.43;;
35891;SDS011;21993;42.672;23.296;2023-03-14T08:36:32;20.67;;;13.37;;
35891;SDS011;21993;42.672;23.296;2023-03-14T08:38:58;24.30;;;14.10;;
35891;SDS011;21993;42.672;23.296;2023-03-14T08:41:23;18.77;;;12.97;;
35891;SDS011;21993;42.672;23.296;2023-03-14T08:43:49;21.90;;;13.10;;
35891;SDS011;21993;42.672;23.296;2023-03-14T08:46:15;27.37;;;13.87;;
35891;SDS011;21993;42.672;23.296;2023-03-14T08:48:40;18.47;;;12.70;;
35891;SDS011;21993;42.672;23.296;2023-03-14T08:51:11;18.90;;;12.53;;
35891;SDS011;21993;42.672;23.296;2023-03-14T08:53:38;16.27;;;12.17;;
35891;SDS011;21993;42.672;23.296;2023-03-14T08:56:05;16.83;;;11.80;;
35891;SDS011;21993;42.672;23.296;2023-03-14T08:58:31;14.67;;;11.30;;
35891;SDS011;21993;42.672;23.296;2023-03-14T09:00:57;16.97;;;11.00;;
35891;SDS011;21993;42.672;23.296;2023-03-14T09:03:23;16.10;;;10.40;;
35891;SDS011;21993;42.672;23.296;2023-03-14T09:05:50;16.20;;;11.23;;
35891;SDS011;21993;42.672;23.296;2023-03-14T09:08:16;15.20;;;10.83;;
35891;SDS011;21993;42.672;23.296;2023-03-14T09:10:41;14.37;;;10.90;;
35891;SDS011;21993;42.672;23.296;2023-03-14T09:13:07;22.10;;;11.17;;
35891;SDS011;21993;42.672;23.296;2023-03-14T09:15:32;13.13;;;7.97;;
35891;SDS011;21993;42.672;23.296;2023-03-14T09:17:58;13.27;;;9.47;;
35891;SDS011;21993;42.672;23.296;2023-03-14T09:20:23;16.47;;;9.23;;
35891;SDS011;21993;42.672;23.296;2023-03-14T09:22:49;16.60;;;10.00;;
35891;SDS011;21993;42.672;23.296;2023-03-14T09:25:14;15.70;;;9.27;;
35891;SDS011;21993;42.672;23.296;2023-03-14T09:27:40;12.03;;;9.37;;
35891;SDS011;21993;42.672;23.296;2023-03-14T09:30:05;14.10;;;9.23;;
35891;SDS011;21993;42.672;23.296;2023-03-14T09:32:31;12.83;;;9.63;;
35891;SDS011;21993;42.672;23.296;2023-03-14T09:34:57;16.93;;;10.07;;
35891;SDS011;21993;42.672;23.296;2023-03-14T09:37:22;13.90;;;10.40;;
35891;SDS011;21993;42.672;23.296;2023-03-14T09:39:48;12.30;;;9.33;;
35891;SDS011;21993;42.672;23.296;2023-03-14T09:42:14;14.30;;;10.30;;
35891;SDS011;21993;42.672;23.296;2023-03-14T09:47:33;14.33;;;8.47;;
35891;SDS011;21993;42.672;23.296;2023-03-14T09:50:02;13.10;;;8.00;;
35891;SDS011;21993;42.672;23.296;2023-03-14T09:52:32;9.77;;;8.10;;
35891;SDS011;21993;42.672;23.296;2023-03-14T09:55:02;13.67;;;8.60;;
35891;SDS011;21993;42.672;23.296;2023-03-14T09:57:30;12.20;;;8.73;;
35891;SDS011;21993;42.672;23.296;2023-03-14T10:00:00;11.23;;;7.73;;
35891;SDS011;21993;42.672;23.296;2023-03-14T10:02:39;12.07;;;8.73;;
35891;SDS011;21993;42.672;23.296;2023-03-14T10:05:19;11.63;;;7.83;;
35891;SDS011;21993;42.672;23.296;2023-03-14T10:07:46;11.37;;;7.70;;
35891;SDS011;21993;42.672;23.296;2023-03-14T10:12:52;10.87;;;7.83;;
35891;SDS011;21993;42.672;23.296;2023-03-14T10:15:25;9.17;;;7.30;;
35891;SDS011;21993;42.672;23.296;2023-03-14T10:17:58;11.43;;;7.73;;
35891;SDS011;21993;42.672;23.296;2023-03-14T10:23:04;10.77;;;7.03;;
35891;SDS011;21993;42.672;23.296;2023-03-14T10:25:33;10.20;;;6.50;;
35891;SDS011;21993;42.672;23.296;2023-03-14T10:28:00;14.07;;;7.27;;
35891;SDS011;21993;42.672;23.296;2023-03-14T10:30:28;10.60;;;7.47;;
35891;SDS011;21993;42.672;23.296;2023-03-14T10:32:54;10.13;;;6.77;;
35891;SDS011;21993;42.672;23.296;2023-03-14T10:35:20;11.80;;;7.70;;
35891;SDS011;21993;42.672;23.296;2023-03-14T10:37:48;12.30;;;8.47;;
35891;SDS011;21993;42.672;23.296;2023-03-14T10:40:28;11.70;;;8.00;;
35891;SDS011;21993;42.672;23.296;2023-03-14T10:42:59;12.07;;;7.67;;
35891;SDS011;21993;42.672;23.296;2023-03-14T10:47:58;10.90;;;7.17;;
35891;SDS011;21993;42.672;23.296;2023-03-14T10:50:30;11.30;;;7.20;;
35891;SDS011;21993;42.672;23.296;2023-03-14T10:52:56;14.57;;;8.50;;
35891;SDS011;21993;42.672;23.296;2023-03-14T10:55:25;11.17;;;7.57;;
35891;SDS011;21993;42.672;23.296;2023-03-14T10:57:51;12.70;;;8.10;;
35891;SDS011;21993;42.672;23.296;2023-03-14T11:05:47;12.90;;;7.67;;
35891;SDS011;21993;42.672;23.296;2023-03-14T11:08:20;13.40;;;7.23;;
35891;SDS011;21993;42.672;23.296;2023-03-14T11:16:56;12.07;;;6.72;;
35891;SDS011;21993;42.672;23.296;2023-03-14T11:19:43;9.53;;;5.70;;
35891;SDS011;21993;42.672;23.296;2023-03-14T11:22:18;9.20;;;6.03;;
35891;SDS011;21993;42.672;23.296;2023-03-14T11:27:44;9.73;;;5.60;;
35891;SDS011;21993;42.672;23.296;2023-03-14T11:32:45;8.87;;;4.93;;
35891;SDS011;21993;42.672;23.296;2023-03-14T11:35:33;9.63;;;5.10;;
35891;SDS011;21993;42.672;23.296;2023-03-14T11:38:18;8.03;;;4.67;;
35891;SDS011;21993;42.672;23.296;2023-03-14T11:40:56;5.80;;;5.10;;
35891;SDS011;21993;42.672;23.296;2023-03-14T11:43:28;4.13;;;3.73;;
35891;SDS011;21993;42.672;23.296;2023-03-14T11:46:08;5.33;;;4.67;;
35891;SDS011;21993;42.672;23.296;2023-03-14T11:51:39;9.83;;;4.77;;
35891;SDS011;21993;42.672;23.296;2023-03-14T11:54:20;6.40;;;3.90;;
35891;SDS011;21993;42.672;23.296;2023-03-14T11:56:59;3.93;;;3.53;;
35891;SDS011;21993;42.672;23.296;2023-03-14T12:07:50;5.70;;;3.90;;
35891;SDS011;21993;42.672;23.296;2023-03-14T12:10:48;3.90;;;3.50;;
35891;SDS011;21993;42.672;23.296;2023-03-14T12:13:17;5.57;;;3.90;;
35891;SDS011;21993;42.672;23.296;2023-03-14T12:15:48;8.03;;;4.20;;
35891;SDS011;21993;42.672;23.296;2023-03-14T12:18:20;4.47;;;3.47;;
35891;SDS011;21993;42.672;23.296;2023-03-14T12:21:10;8.73;;;3.97;;
35891;SDS011;21993;42.672;23.296;2023-03-14T12:23:40;4.83;;;3.43;;
35891;SDS011;21993;42.672;23.296;2023-03-14T12:28:44;6.43;;;4.33;;
35891;SDS011;21993;42.672;23.296;2023-03-14T12:45:34;3.97;;;3.30;;
35891;SDS011;21993;42.672;23.296;2023-03-14T12:48:10;6.93;;;3.17;;
35891;SDS011;21993;42.672;23.296;2023-03-14T12:50:53;5.60;;;3.27;;
35891;SDS011;21993;42.672;23.296;2023-03-14T13:01:23;3.23;;;2.90;;
35891;SDS011;21993;42.672;23.296;2023-03-14T13:12:03;8.33;;;3.00;;
35891;SDS011;21993;42.672;23.296;2023-03-14T13:14:35;7.00;;;2.80;;
35891;SDS011;21993;42.672;23.296;2023-03-14T13:17:02;5.67;;;4.00;;
35891;SDS011;21993;42.672;23.296;2023-03-14T13:19:28;6.33;;;2.80;;
35891;SDS011;21993;42.672;23.296;2023-03-14T13:21:59;4.13;;;3.00;;
35891;SDS011;21993;42.672;23.296;2023-03-14T13:24:27;7.40;;;2.87;;
35891;SDS011;21993;42.672;23.296;2023-03-14T13:26:53;6.03;;;3.00;;
35891;SDS011;21993;42.672;23.296;2023-03-14T13:29:21;4.30;;;3.00;;
35891;SDS011;21993;42.672;23.296;2023-03-14T13:31:49;5.60;;;2.77;;
35891;SDS011;21993;42.672;23.296;2023-03-14T13:34:17;7.70;;;2.80;;
35891;SDS011;21993;42.672;23.296;2023-03-14T13:36:43;3.20;;;2.50;;
35891;SDS011;21993;42.672;23.296;2023-03-14T13:39:17;3.77;;;2.70;;
35891;SDS011;21993;42.672;23.296;2023-03-14T13:41:53;3.90;;;2.50;;
35891;SDS011;21993;42.672;23.296;2023-03-14T13:44:24;3.33;;;2.60;;
35891;SDS011;21993;42.672;23.296;2023-03-14T13:46:58;4.37;;;3.13;;
35891;SDS011;21993;42.672;23.296;2023-03-14T13:49:25;2.40;;;2.20;;
35891;SDS011;21993;42.672;23.296;2023-03-14T13:51:51;4.73;;;3.10;;
35891;SDS011;21993;42.672;23.296;2023-03-14T13:54:17;3.70;;;2.90;;
35891;SDS011;21993;42.672;23.296;2023-03-14T13:56:45;4.33;;;3.03;;
35891;SDS011;21993;42.672;23.296;2023-03-14T13:59:27;2.87;;;2.57;;
35891;SDS011;21993;42.672;23.296;2023-03-14T14:01:54;3.27;;;2.80;;
35891;SDS011;21993;42.672;23.296;2023-03-14T14:04:22;3.80;;;2.20;;
35891;SDS011;21993;42.672;23.296;2023-03-14T14:06:52;5.43;;;2.80;;
35891;SDS011;21993;42.672;23.296;2023-03-14T14:09:22;5.73;;;2.33;;
35891;SDS011;21993;42.672;23.296;2023-03-14T14:11:56;5.93;;;3.43;;
35891;SDS011;21993;42.672;23.296;2023-03-14T14:16:57;3.33;;;2.60;;
35891;SDS011;21993;42.672;23.296;2023-03-14T14:19:25;2.50;;;2.30;;
35891;SDS011;21993;42.672;23.296;2023-03-14T14:21:54;4.57;;;2.40;;
35891;SDS011;21993;42.672;23.296;2023-03-14T14:24:21;3.70;;;2.17;;
35891;SDS011;21993;42.672;23.296;2023-03-14T14:26:53;3.87;;;2.60;;
35891;SDS011;21993;42.672;23.296;2023-03-14T14:29:30;2.47;;;2.27;;
35891;SDS011;21993;42.672;23.296;2023-03-14T14:34:44;4.53;;;2.60;;
35891;SDS011;21993;42.672;23.296;2023-03-14T14:37:43;5.83;;;3.10;;
35891;SDS011;21993;42.672;23.296;2023-03-14T14:40:22;4.00;;;2.90;;
35891;SDS011;21993;42.672;23.296;2023-03-14T14:42:49;2.10;;;1.93;;
35891;SDS011;21993;42.672;23.296;2023-03-14T14:45:19;2.20;;;2.00;;
35891;SDS011;21993;42.672;23.296;2023-03-14T14:50:39;4.57;;;2.60;;
35891;SDS011;21993;42.672;23.296;2023-03-14T14:53:19;4.60;;;2.50;;
35891;SDS011;21993;42.672;23.296;2023-03-14T14:55:52;4.60;;;2.30;;
35891;SDS011;21993;42.672;23.296;2023-03-14T14:58:22;3.50;;;2.40;;
35891;SDS011;21993;42.672;23.296;2023-03-14T15:01:04;2.53;;;2.10;;
35891;SDS011;21993;42.672;23.296;2023-03-14T15:03:32;4.77;;;2.60;;
35891;SDS011;21993;42.672;23.296;2023-03-14T15:05:59;2.83;;;2.00;;
35891;SDS011;21993;42.672;23.296;2023-03-14T15:08:26;4.97;;;2.60;;
35891;SDS011;21993;42.672;23.296;2023-03-14T15:10:52;4.63;;;2.40;;
35891;SDS011;21993;42.672;23.296;2023-03-14T15:13:19;2.50;;;2.20;;
35891;SDS011;21993;42.672;23.296;2023-03-14T15:15:44;2.63;;;2.43;;
35891;SDS011;21993;42.672;23.296;2023-03-14T15:18:15;3.60;;;2.20;;
35891;SDS011;21993;42.672;23.296;2023-03-14T15:20:45;3.00;;;2.37;;
35891;SDS011;21993;42.672;23.296;2023-03-14T15:23:18;3.80;;;2.37;;
35891;SDS011;21993;42.672;23.296;2023-03-14T15:25:45;2.63;;;2.20;;
35891;SDS011;21993;42.672;23.296;2023-03-14T15:28:17;2.83;;;2.33;;
35891;SDS011;21993;42.672;23.296;2023-03-14T15:30:46;2.40;;;1.97;;
35891;SDS011;21993;42.672;23.296;2023-03-14T15:33:16;6.33;;;2.30;;
35891;SDS011;21993;42.672;23.296;2023-03-14T15:35:42;4.13;;;2.70;;
35891;SDS011;21993;42.672;23.296;2023-03-14T15:38:09;3.00;;;2.40;;
35891;SDS011;21993;42.672;23.296;2023-03-14T15:40:39;3.20;;;2.27;;
35891;SDS011;21993;42.672;23.296;2023-03-14T15:43:05;3.03;;;2.70;;
35891;SDS011;21993;42.672;23.296;2023-03-14T15:45:30;5.17;;;2.50;;